sensor_id;sensor_type;location;lat;lon;timestamp;P1;durP1;ratioP1;P2;durP2;ratioP2
50319;SDS011;36226;53.464;9.852;2023-06-14T00:02:05;4.03;;;2.17;;
50319;SDS011;36226;53.464;9.852;2023-06-14T00:04:33;3.72;;;2.03;;
50319;SDS011;36226;53.464;9.852;2023-06-14T00:06:59;4.47;;;1.90;;
50319;SDS011;36226;53.464;9.852;2023-06-14T00:09:25;3.65;;;1.83;;
50319;SDS011;36226;53.464;9.852;2023-06-14T00:11:50;4.07;;;1.88;;
50319;SDS011;36226;53.464;9.852;2023-06-14T00:14:15;4.45;;;2.13;;
50319;SDS011;36226;53.464;9.852;2023-06-14T00:16:41;3.53;;;1.80;;
50319;SDS011;36226;53.464;9.852;2023-06-14T00:19:07;4.93;;;1.90;;
50319;SDS011;36226;53.464;9.852;2023-06-14T00:21:35;3.08;;;1.90;;
50319;SDS011;36226;53.464;9.852;2023-06-14T00:24:01;3.10;;;1.73;;
50319;SDS011;36226;53.464;9.852;2023-06-14T00:26:27;4.38;;;1.90;;
50319;SDS011;36226;53.464;9.852;2023-06-14T00:28:55;4.85;;;1.92;;
50319;SDS011;36226;53.464;9.852;2023-06-14T00:31:21;6.20;;;1.85;;
50319;SDS011;36226;53.464;9.852;2023-06-14T00:33:47;4.68;;;2.10;;
50319;SDS011;36226;53.464;9.852;2023-06-14T00:36:13;3.33;;;1.92;;
50319;SDS011;36226;53.464;9.852;2023-06-14T00:38:38;3.45;;;1.90;;
50319;SDS011;36226;53.464;9.852;2023-06-14T00:41:06;3.72;;;1.60;;
50319;SDS011;36226;53.464;9.852;2023-06-14T00:43:34;4.30;;;1.95;;
50319;SDS011;36226;53.464;9.852;2023-06-14T00:46:00;6.70;;;1.90;;
50319;SDS011;36226;53.464;9.852;2023-06-14T00:48:25;3.15;;;1.80;;
50319;SDS011;36226;53.464;9.852;2023-06-14T00:50:51;2.72;;;1.80;;
50319;SDS011;36226;53.464;9.852;2023-06-14T00:53:17;6.40;;;2.00;;
50319;SDS011;36226;53.464;9.852;2023-06-14T00:55:43;3.30;;;1.85;;
50319;SDS011;36226;53.464;9.852;2023-06-14T00:58:09;2.67;;;1.83;;
50319;SDS011;36226;53.464;9.852;2023-06-14T01:00:35;3.22;;;1.88;;
50319;SDS011;36226;53.464;9.852;2023-06-14T01:03:01;5.18;;;1.80;;
50319;SDS011;36226;53.464;9.852;2023-06-14T01:05:26;3.05;;;1.80;;
50319;SDS011;36226;53.464;9.852;2023-06-14T01:10:41;4.53;;;2.25;;
50319;SDS011;36226;53.464;9.852;2023-06-14T01:13:23;6.20;;;2.05;;
50319;SDS011;36226;53.464;9.852;2023-06-14T01:15:55;3.17;;;2.15;;
50319;SDS011;36226;53.464;9.852;2023-06-14T01:18:21;4.95;;;1.80;;
50319;SDS011;36226;53.464;9.852;2023-06-14T01:20:49;4.65;;;2.10;;
50319;SDS011;36226;53.464;9.852;2023-06-14T01:23:21;3.35;;;1.73;;
50319;SDS011;36226;53.464;9.852;2023-06-14T01:25:48;4.15;;;2.05;;
50319;SDS011;36226;53.464;9.852;2023-06-14T01:28:18;4.32;;;1.98;;
50319;SDS011;36226;53.464;9.852;2023-06-14T01:30:46;3.42;;;1.77;;
50319;SDS011;36226;53.464;9.852;2023-06-14T01:33:13;2.90;;;1.92;;
50319;SDS011;36226;53.464;9.852;2023-06-14T01:35:47;4.95;;;2.20;;
50319;SDS011;36226;53.464;9.852;2023-06-14T01:38:13;5.00;;;2.60;;
50319;SDS011;36226;53.464;9.852;2023-06-14T01:40:39;3.63;;;2.03;;
50319;SDS011;36226;53.464;9.852;2023-06-14T01:43:06;6.43;;;2.17;;
50319;SDS011;36226;53.464;9.852;2023-06-14T01:45:32;4.40;;;2.78;;
50319;SDS011;36226;53.464;9.852;2023-06-14T01:47:58;5.28;;;2.42;;
50319;SDS011;36226;53.464;9.852;2023-06-14T01:50:27;6.45;;;2.65;;
50319;SDS011;36226;53.464;9.852;2023-06-14T01:52:55;4.03;;;2.58;;
50319;SDS011;36226;53.464;9.852;2023-06-14T01:55:20;5.95;;;2.30;;
50319;SDS011;36226;53.464;9.852;2023-06-14T01:57:46;4.80;;;2.47;;
50319;SDS011;36226;53.464;9.852;2023-06-14T02:00:12;5.38;;;2.88;;
50319;SDS011;36226;53.464;9.852;2023-06-14T02:02:39;6.50;;;2.35;;
50319;SDS011;36226;53.464;9.852;2023-06-14T02:05:05;5.45;;;2.75;;
50319;SDS011;36226;53.464;9.852;2023-06-14T02:07:31;7.25;;;2.50;;
50319;SDS011;36226;53.464;9.852;2023-06-14T02:09:56;4.18;;;2.60;;
50319;SDS011;36226;53.464;9.852;2023-06-14T02:12:22;4.55;;;2.25;;
50319;SDS011;36226;53.464;9.852;2023-06-14T02:14:47;6.32;;;2.38;;
50319;SDS011;36226;53.464;9.852;2023-06-14T02:17:13;3.88;;;2.20;;
50319;SDS011;36226;53.464;9.852;2023-06-14T02:19:39;4.10;;;2.28;;
50319;SDS011;36226;53.464;9.852;2023-06-14T02:22:04;5.95;;;2.53;;
50319;SDS011;36226;53.464;9.852;2023-06-14T02:24:29;7.65;;;2.63;;
50319;SDS011;36226;53.464;9.852;2023-06-14T02:26:55;5.43;;;2.40;;
50319;SDS011;36226;53.464;9.852;2023-06-14T02:29:20;3.53;;;2.25;;
50319;SDS011;36226;53.464;9.852;2023-06-14T02:31:46;4.43;;;2.35;;
50319;SDS011;36226;53.464;9.852;2023-06-14T02:34:13;4.18;;;2.40;;
50319;SDS011;36226;53.464;9.852;2023-06-14T02:36:39;3.55;;;2.33;;
50319;SDS011;36226;53.464;9.852;2023-06-14T02:39:06;3.95;;;2.30;;
50319;SDS011;36226;53.464;9.852;2023-06-14T02:41:35;4.65;;;2.38;;
50319;SDS011;36226;53.464;9.852;2023-06-14T02:44:00;4.20;;;2.58;;
50319;SDS011;36226;53.464;9.852;2023-06-14T02:46:26;4.47;;;2.13;;
50319;SDS011;36226;53.464;9.852;2023-06-14T02:48:51;5.40;;;2.40;;
50319;SDS011;36226;53.464;9.852;2023-06-14T02:51:16;3.78;;;2.25;;
50319;SDS011;36226;53.464;9.852;2023-06-14T02:53:42;3.60;;;2.30;;
50319;SDS011;36226;53.464;9.852;2023-06-14T02:56:08;4.35;;;2.40;;
50319;SDS011;36226;53.464;9.852;2023-06-14T02:58:34;5.40;;;2.50;;
50319;SDS011;36226;53.464;9.852;2023-06-14T03:01:01;4.18;;;2.40;;
50319;SDS011;36226;53.464;9.852;2023-06-14T03:03:28;4.63;;;2.22;;
50319;SDS011;36226;53.464;9.852;2023-06-14T03:05:54;4.15;;;2.55;;
50319;SDS011;36226;53.464;9.852;2023-06-14T03:08:20;3.20;;;2.33;;
50319;SDS011;36226;53.464;9.852;2023-06-14T03:10:48;5.63;;;2.50;;
50319;SDS011;36226;53.464;9.852;2023-06-14T03:13:14;3.20;;;2.10;;
50319;SDS011;36226;53.464;9.852;2023-06-14T03:15:41;5.78;;;2.47;;
50319;SDS011;36226;53.464;9.852;2023-06-14T03:18:07;3.95;;;2.67;;
50319;SDS011;36226;53.464;9.852;2023-06-14T03:20:34;6.22;;;2.72;;
50319;SDS011;36226;53.464;9.852;2023-06-14T03:23:01;5.95;;;2.60;;
50319;SDS011;36226;53.464;9.852;2023-06-14T03:25:27;3.72;;;2.20;;
50319;SDS011;36226;53.464;9.852;2023-06-14T03:27:54;4.10;;;2.60;;
50319;SDS011;36226;53.464;9.852;2023-06-14T03:30:20;5.03;;;2.90;;
50319;SDS011;36226;53.464;9.852;2023-06-14T03:32:45;5.57;;;2.40;;
50319;SDS011;36226;53.464;9.852;2023-06-14T03:35:11;3.17;;;2.40;;
50319;SDS011;36226;53.464;9.852;2023-06-14T03:37:42;7.03;;;2.45;;
50319;SDS011;36226;53.464;9.852;2023-06-14T03:40:10;4.18;;;2.42;;
50319;SDS011;36226;53.464;9.852;2023-06-14T03:42:37;5.20;;;2.60;;
50319;SDS011;36226;53.464;9.852;2023-06-14T03:45:02;6.65;;;2.70;;
50319;SDS011;36226;53.464;9.852;2023-06-14T03:47:28;8.77;;;2.80;;
50319;SDS011;36226;53.464;9.852;2023-06-14T03:49:54;5.50;;;2.83;;
50319;SDS011;36226;53.464;9.852;2023-06-14T03:52:19;6.68;;;2.75;;
50319;SDS011;36226;53.464;9.852;2023-06-14T03:54:47;5.60;;;2.63;;
50319;SDS011;36226;53.464;9.852;2023-06-14T03:57:12;3.72;;;2.70;;
50319;SDS011;36226;53.464;9.852;2023-06-14T03:59:38;6.93;;;2.42;;
50319;SDS011;36226;53.464;9.852;2023-06-14T04:02:03;5.63;;;2.70;;
50319;SDS011;36226;53.464;9.852;2023-06-14T04:04:29;6.55;;;2.80;;
50319;SDS011;36226;53.464;9.852;2023-06-14T04:06:55;3.50;;;2.40;;
50319;SDS011;36226;53.464;9.852;2023-06-14T04:09:21;4.65;;;2.53;;
50319;SDS011;36226;53.464;9.852;2023-06-14T04:11:49;6.63;;;2.75;;
50319;SDS011;36226;53.464;9.852;2023-06-14T04:14:16;6.47;;;2.45;;
50319;SDS011;36226;53.464;9.852;2023-06-14T04:16:41;6.43;;;2.70;;
50319;SDS011;36226;53.464;9.852;2023-06-14T04:19:06;4.22;;;2.45;;
50319;SDS011;36226;53.464;9.852;2023-06-14T04:21:32;2.47;;;1.90;;
50319;SDS011;36226;53.464;9.852;2023-06-14T04:23:59;6.20;;;2.40;;
50319;SDS011;36226;53.464;9.852;2023-06-14T04:26:26;5.53;;;2.83;;
50319;SDS011;36226;53.464;9.852;2023-06-14T04:28:55;9.80;;;2.35;;
50319;SDS011;36226;53.464;9.852;2023-06-14T04:31:22;6.57;;;2.55;;
50319;SDS011;36226;53.464;9.852;2023-06-14T04:33:50;7.03;;;2.80;;
50319;SDS011;36226;53.464;9.852;2023-06-14T04:36:15;4.63;;;2.45;;
50319;SDS011;36226;53.464;9.852;2023-06-14T04:38:42;5.53;;;2.97;;
50319;SDS011;36226;53.464;9.852;2023-06-14T04:41:10;3.92;;;2.67;;
50319;SDS011;36226;53.464;9.852;2023-06-14T04:43:36;4.05;;;2.45;;
50319;SDS011;36226;53.464;9.852;2023-06-14T04:46:03;7.78;;;2.88;;
50319;SDS011;36226;53.464;9.852;2023-06-14T04:48:30;5.82;;;2.75;;
50319;SDS011;36226;53.464;9.852;2023-06-14T04:50:56;4.60;;;2.78;;
50319;SDS011;36226;53.464;9.852;2023-06-14T04:53:21;6.88;;;3.13;;
50319;SDS011;36226;53.464;9.852;2023-06-14T04:55:48;4.47;;;3.08;;
50319;SDS011;36226;53.464;9.852;2023-06-14T04:58:13;5.13;;;3.10;;
50319;SDS011;36226;53.464;9.852;2023-06-14T05:00:39;5.05;;;3.00;;
50319;SDS011;36226;53.464;9.852;2023-06-14T05:03:04;6.60;;;3.20;;
50319;SDS011;36226;53.464;9.852;2023-06-14T05:05:31;6.00;;;2.83;;
50319;SDS011;36226;53.464;9.852;2023-06-14T05:07:57;6.20;;;2.85;;
50319;SDS011;36226;53.464;9.852;2023-06-14T05:10:22;6.05;;;2.78;;
50319;SDS011;36226;53.464;9.852;2023-06-14T05:12:48;5.70;;;2.78;;
50319;SDS011;36226;53.464;9.852;2023-06-14T05:15:14;4.13;;;2.25;;
50319;SDS011;36226;53.464;9.852;2023-06-14T05:17:39;5.40;;;2.80;;
50319;SDS011;36226;53.464;9.852;2023-06-14T05:20:06;6.72;;;3.10;;
50319;SDS011;36226;53.464;9.852;2023-06-14T05:22:32;10.65;;;4.00;;
50319;SDS011;36226;53.464;9.852;2023-06-14T05:24:57;5.70;;;3.22;;
50319;SDS011;36226;53.464;9.852;2023-06-14T05:27:22;6.38;;;2.88;;
50319;SDS011;36226;53.464;9.852;2023-06-14T05:29:49;5.63;;;2.70;;
50319;SDS011;36226;53.464;9.852;2023-06-14T05:32:15;6.10;;;3.00;;
50319;SDS011;36226;53.464;9.852;2023-06-14T05:34:40;6.70;;;2.55;;
50319;SDS011;36226;53.464;9.852;2023-06-14T05:37:06;5.60;;;2.85;;
50319;SDS011;36226;53.464;9.852;2023-06-14T05:39:31;5.03;;;2.70;;
50319;SDS011;36226;53.464;9.852;2023-06-14T05:41:56;4.95;;;2.90;;
50319;SDS011;36226;53.464;9.852;2023-06-14T05:44:22;5.70;;;2.97;;
50319;SDS011;36226;53.464;9.852;2023-06-14T05:46:47;8.07;;;2.92;;
50319;SDS011;36226;53.464;9.852;2023-06-14T05:49:12;5.07;;;2.90;;
50319;SDS011;36226;53.464;9.852;2023-06-14T05:51:38;6.32;;;2.80;;
50319;SDS011;36226;53.464;9.852;2023-06-14T05:54:03;5.32;;;3.10;;
50319;SDS011;36226;53.464;9.852;2023-06-14T05:56:28;5.82;;;2.80;;
50319;SDS011;36226;53.464;9.852;2023-06-14T05:58:54;8.80;;;3.33;;
50319;SDS011;36226;53.464;9.852;2023-06-14T06:01:20;4.75;;;2.60;;
50319;SDS011;36226;53.464;9.852;2023-06-14T06:03:45;9.02;;;3.17;;
50319;SDS011;36226;53.464;9.852;2023-06-14T06:06:11;4.55;;;2.80;;
50319;SDS011;36226;53.464;9.852;2023-06-14T06:08:37;4.88;;;2.63;;
50319;SDS011;36226;53.464;9.852;2023-06-14T06:11:02;7.55;;;2.83;;
50319;SDS011;36226;53.464;9.852;2023-06-14T06:13:27;5.90;;;2.90;;
50319;SDS011;36226;53.464;9.852;2023-06-14T06:15:53;6.30;;;2.80;;
50319;SDS011;36226;53.464;9.852;2023-06-14T06:18:18;4.43;;;2.35;;
50319;SDS011;36226;53.464;9.852;2023-06-14T06:20:43;6.35;;;2.50;;
50319;SDS011;36226;53.464;9.852;2023-06-14T06:23:09;6.90;;;3.05;;
50319;SDS011;36226;53.464;9.852;2023-06-14T06:25:34;6.82;;;2.60;;
50319;SDS011;36226;53.464;9.852;2023-06-14T06:28:00;7.45;;;2.70;;
50319;SDS011;36226;53.464;9.852;2023-06-14T06:30:26;4.50;;;2.30;;
50319;SDS011;36226;53.464;9.852;2023-06-14T06:32:51;8.27;;;3.05;;
50319;SDS011;36226;53.464;9.852;2023-06-14T06:35:18;4.53;;;2.78;;
50319;SDS011;36226;53.464;9.852;2023-06-14T06:37:43;3.83;;;2.28;;
50319;SDS011;36226;53.464;9.852;2023-06-14T06:40:08;3.53;;;2.70;;
50319;SDS011;36226;53.464;9.852;2023-06-14T06:42:35;3.78;;;2.80;;
50319;SDS011;36226;53.464;9.852;2023-06-14T06:45:00;6.30;;;2.90;;
50319;SDS011;36226;53.464;9.852;2023-06-14T06:47:26;4.90;;;2.45;;
50319;SDS011;36226;53.464;9.852;2023-06-14T06:49:51;5.65;;;2.45;;
50319;SDS011;36226;53.464;9.852;2023-06-14T06:52:17;4.63;;;2.45;;
50319;SDS011;36226;53.464;9.852;2023-06-14T06:54:42;4.63;;;2.30;;
50319;SDS011;36226;53.464;9.852;2023-06-14T06:57:08;4.38;;;2.50;;
50319;SDS011;36226;53.464;9.852;2023-06-14T06:59:33;4.95;;;2.15;;
50319;SDS011;36226;53.464;9.852;2023-06-14T07:01:59;4.38;;;2.33;;
50319;SDS011;36226;53.464;9.852;2023-06-14T07:04:24;3.72;;;2.65;;
50319;SDS011;36226;53.464;9.852;2023-06-14T07:06:50;9.88;;;2.47;;
50319;SDS011;36226;53.464;9.852;2023-06-14T07:09:15;6.10;;;2.40;;
50319;SDS011;36226;53.464;9.852;2023-06-14T07:11:42;2.47;;;2.10;;
50319;SDS011;36226;53.464;9.852;2023-06-14T07:14:08;4.10;;;2.25;;
50319;SDS011;36226;53.464;9.852;2023-06-14T07:16:34;3.03;;;1.92;;
50319;SDS011;36226;53.464;9.852;2023-06-14T07:18:59;3.33;;;2.20;;
50319;SDS011;36226;53.464;9.852;2023-06-14T07:21:26;4.55;;;2.10;;
50319;SDS011;36226;53.464;9.852;2023-06-14T07:23:54;3.40;;;1.83;;
50319;SDS011;36226;53.464;9.852;2023-06-14T07:26:20;2.05;;;1.80;;
50319;SDS011;36226;53.464;9.852;2023-06-14T07:28:46;4.22;;;2.17;;
50319;SDS011;36226;53.464;9.852;2023-06-14T07:31:12;4.07;;;2.13;;
50319;SDS011;36226;53.464;9.852;2023-06-14T07:33:39;2.65;;;1.85;;
50319;SDS011;36226;53.464;9.852;2023-06-14T07:36:05;4.22;;;2.03;;
50319;SDS011;36226;53.464;9.852;2023-06-14T07:38:30;3.95;;;2.00;;
50319;SDS011;36226;53.464;9.852;2023-06-14T07:40:56;2.75;;;1.98;;
50319;SDS011;36226;53.464;9.852;2023-06-14T07:43:21;3.10;;;2.00;;
50319;SDS011;36226;53.464;9.852;2023-06-14T07:45:46;2.50;;;1.95;;
50319;SDS011;36226;53.464;9.852;2023-06-14T07:48:12;4.10;;;1.85;;
50319;SDS011;36226;53.464;9.852;2023-06-14T07:50:37;4.43;;;1.98;;
50319;SDS011;36226;53.464;9.852;2023-06-14T07:53:02;6.68;;;1.63;;
50319;SDS011;36226;53.464;9.852;2023-06-14T07:55:28;4.28;;;2.05;;
50319;SDS011;36226;53.464;9.852;2023-06-14T07:57:53;5.65;;;1.77;;
50319;SDS011;36226;53.464;9.852;2023-06-14T08:00:19;3.25;;;1.80;;
50319;SDS011;36226;53.464;9.852;2023-06-14T08:02:45;5.38;;;2.05;;
50319;SDS011;36226;53.464;9.852;2023-06-14T08:05:11;5.00;;;2.10;;
50319;SDS011;36226;53.464;9.852;2023-06-14T08:07:37;6.13;;;2.00;;
50319;SDS011;36226;53.464;9.852;2023-06-14T08:10:04;3.22;;;2.05;;
50319;SDS011;36226;53.464;9.852;2023-06-14T08:12:31;4.18;;;1.67;;
50319;SDS011;36226;53.464;9.852;2023-06-14T08:14:56;5.05;;;2.05;;
50319;SDS011;36226;53.464;9.852;2023-06-14T08:17:22;3.47;;;1.80;;
50319;SDS011;36226;53.464;9.852;2023-06-14T08:19:47;2.67;;;1.80;;
50319;SDS011;36226;53.464;9.852;2023-06-14T08:22:12;3.60;;;1.92;;
50319;SDS011;36226;53.464;9.852;2023-06-14T08:24:38;7.72;;;2.00;;
50319;SDS011;36226;53.464;9.852;2023-06-14T08:27:04;3.78;;;2.00;;
50319;SDS011;36226;53.464;9.852;2023-06-14T08:29:33;2.30;;;1.65;;
50319;SDS011;36226;53.464;9.852;2023-06-14T08:31:59;3.58;;;2.10;;
50319;SDS011;36226;53.464;9.852;2023-06-14T08:34:25;4.55;;;2.13;;
50319;SDS011;36226;53.464;9.852;2023-06-14T08:36:50;5.00;;;1.88;;
50319;SDS011;36226;53.464;9.852;2023-06-14T08:39:16;4.05;;;1.80;;
50319;SDS011;36226;53.464;9.852;2023-06-14T08:41:42;3.95;;;2.08;;
50319;SDS011;36226;53.464;9.852;2023-06-14T08:44:08;4.18;;;2.17;;
50319;SDS011;36226;53.464;9.852;2023-06-14T08:46:33;2.65;;;1.80;;
50319;SDS011;36226;53.464;9.852;2023-06-14T08:48:59;3.58;;;2.00;;
50319;SDS011;36226;53.464;9.852;2023-06-14T08:51:26;3.92;;;1.88;;
50319;SDS011;36226;53.464;9.852;2023-06-14T08:53:58;2.75;;;1.90;;
50319;SDS011;36226;53.464;9.852;2023-06-14T08:56:26;6.80;;;1.95;;
50319;SDS011;36226;53.464;9.852;2023-06-14T08:58:55;6.05;;;2.05;;
50319;SDS011;36226;53.464;9.852;2023-06-14T09:01:22;4.53;;;1.88;;
50319;SDS011;36226;53.464;9.852;2023-06-14T09:03:48;2.80;;;1.85;;
50319;SDS011;36226;53.464;9.852;2023-06-14T09:06:14;5.93;;;2.17;;
50319;SDS011;36226;53.464;9.852;2023-06-14T09:08:41;5.68;;;1.95;;
50319;SDS011;36226;53.464;9.852;2023-06-14T09:11:11;3.78;;;2.03;;
50319;SDS011;36226;53.464;9.852;2023-06-14T09:13:40;6.95;;;2.38;;
50319;SDS011;36226;53.464;9.852;2023-06-14T09:16:06;5.18;;;2.30;;
50319;SDS011;36226;53.464;9.852;2023-06-14T09:18:39;4.30;;;1.80;;
50319;SDS011;36226;53.464;9.852;2023-06-14T09:21:13;3.72;;;1.90;;
50319;SDS011;36226;53.464;9.852;2023-06-14T09:23:43;6.45;;;2.40;;
50319;SDS011;36226;53.464;9.852;2023-06-14T09:26:10;5.18;;;2.40;;
50319;SDS011;36226;53.464;9.852;2023-06-14T09:31:09;4.10;;;2.30;;
50319;SDS011;36226;53.464;9.852;2023-06-14T09:33:36;4.75;;;2.30;;
50319;SDS011;36226;53.464;9.852;2023-06-14T09:36:01;4.90;;;2.92;;
50319;SDS011;36226;53.464;9.852;2023-06-14T09:38:27;3.15;;;2.00;;
50319;SDS011;36226;53.464;9.852;2023-06-14T09:40:52;2.50;;;2.03;;
50319;SDS011;36226;53.464;9.852;2023-06-14T09:43:17;2.85;;;2.00;;
50319;SDS011;36226;53.464;9.852;2023-06-14T09:45:43;7.25;;;2.25;;
50319;SDS011;36226;53.464;9.852;2023-06-14T09:48:11;4.72;;;2.42;;
50319;SDS011;36226;53.464;9.852;2023-06-14T09:50:37;7.97;;;2.55;;
50319;SDS011;36226;53.464;9.852;2023-06-14T09:53:03;4.10;;;2.30;;
50319;SDS011;36226;53.464;9.852;2023-06-14T09:55:31;6.10;;;2.45;;
50319;SDS011;36226;53.464;9.852;2023-06-14T09:58:04;6.40;;;2.00;;
50319;SDS011;36226;53.464;9.852;2023-06-14T10:00:31;4.85;;;2.33;;
50319;SDS011;36226;53.464;9.852;2023-06-14T10:03:00;4.47;;;2.03;;
50319;SDS011;36226;53.464;9.852;2023-06-14T10:05:30;4.65;;;2.05;;
50319;SDS011;36226;53.464;9.852;2023-06-14T10:07:58;3.90;;;2.20;;
50319;SDS011;36226;53.464;9.852;2023-06-14T10:10:25;4.57;;;2.50;;
50319;SDS011;36226;53.464;9.852;2023-06-14T10:12:50;5.13;;;2.00;;
50319;SDS011;36226;53.464;9.852;2023-06-14T10:15:21;4.88;;;2.40;;
50319;SDS011;36226;53.464;9.852;2023-06-14T10:17:54;2.65;;;2.03;;
50319;SDS011;36226;53.464;9.852;2023-06-14T10:20:30;5.88;;;2.03;;
50319;SDS011;36226;53.464;9.852;2023-06-14T10:23:19;3.47;;;2.03;;
50319;SDS011;36226;53.464;9.852;2023-06-14T10:25:45;4.63;;;2.30;;
50319;SDS011;36226;53.464;9.852;2023-06-14T10:28:16;3.05;;;1.73;;
50319;SDS011;36226;53.464;9.852;2023-06-14T10:33:35;3.25;;;2.38;;
50319;SDS011;36226;53.464;9.852;2023-06-14T10:38:46;4.68;;;2.40;;
50319;SDS011;36226;53.464;9.852;2023-06-14T10:41:32;5.50;;;2.63;;
50319;SDS011;36226;53.464;9.852;2023-06-14T10:47:10;6.30;;;2.45;;
50319;SDS011;36226;53.464;9.852;2023-06-14T10:50:05;7.30;;;1.90;;
50319;SDS011;36226;53.464;9.852;2023-06-14T10:52:32;4.53;;;2.20;;
50319;SDS011;36226;53.464;9.852;2023-06-14T10:57:36;6.50;;;2.00;;
50319;SDS011;36226;53.464;9.852;2023-06-14T11:00:03;4.00;;;2.05;;
50319;SDS011;36226;53.464;9.852;2023-06-14T11:05:52;3.58;;;2.30;;
50319;SDS011;36226;53.464;9.852;2023-06-14T11:10:49;6.18;;;2.20;;
50319;SDS011;36226;53.464;9.852;2023-06-14T11:13:15;5.03;;;2.38;;
50319;SDS011;36226;53.464;9.852;2023-06-14T11:15:45;3.00;;;2.20;;
50319;SDS011;36226;53.464;9.852;2023-06-14T11:18:12;4.07;;;2.13;;
50319;SDS011;36226;53.464;9.852;2023-06-14T11:20:39;7.57;;;2.30;;
50319;SDS011;36226;53.464;9.852;2023-06-14T11:23:05;4.40;;;2.20;;
50319;SDS011;36226;53.464;9.852;2023-06-14T11:25:30;3.38;;;2.30;;
50319;SDS011;36226;53.464;9.852;2023-06-14T11:27:56;5.70;;;2.30;;
50319;SDS011;36226;53.464;9.852;2023-06-14T11:30:22;4.45;;;2.08;;
50319;SDS011;36226;53.464;9.852;2023-06-14T11:32:49;4.20;;;2.30;;
50319;SDS011;36226;53.464;9.852;2023-06-14T11:35:15;4.40;;;2.00;;
50319;SDS011;36226;53.464;9.852;2023-06-14T11:37:42;7.55;;;2.05;;
50319;SDS011;36226;53.464;9.852;2023-06-14T11:40:08;3.35;;;2.05;;
50319;SDS011;36226;53.464;9.852;2023-06-14T11:42:35;5.75;;;2.25;;
50319;SDS011;36226;53.464;9.852;2023-06-14T11:45:00;3.15;;;2.38;;
50319;SDS011;36226;53.464;9.852;2023-06-14T11:47:34;3.35;;;1.90;;
50319;SDS011;36226;53.464;9.852;2023-06-14T11:50:01;3.53;;;2.30;;
50319;SDS011;36226;53.464;9.852;2023-06-14T11:52:26;7.50;;;2.05;;
50319;SDS011;36226;53.464;9.852;2023-06-14T11:54:52;4.60;;;1.92;;
50319;SDS011;36226;53.464;9.852;2023-06-14T11:57:18;5.20;;;2.33;;
50319;SDS011;36226;53.464;9.852;2023-06-14T11:59:44;4.53;;;2.38;;
50319;SDS011;36226;53.464;9.852;2023-06-14T12:02:13;5.03;;;2.25;;
50319;SDS011;36226;53.464;9.852;2023-06-14T12:05:03;6.25;;;2.40;;
50319;SDS011;36226;53.464;9.852;2023-06-14T12:07:35;5.72;;;2.45;;
50319;SDS011;36226;53.464;9.852;2023-06-14T12:12:27;5.25;;;2.47;;
50319;SDS011;36226;53.464;9.852;2023-06-14T12:14:54;5.50;;;2.33;;
50319;SDS011;36226;53.464;9.852;2023-06-14T12:17:21;4.07;;;2.10;;
50319;SDS011;36226;53.464;9.852;2023-06-14T12:19:46;5.90;;;2.53;;
50319;SDS011;36226;53.464;9.852;2023-06-14T12:22:12;6.80;;;2.58;;
50319;SDS011;36226;53.464;9.852;2023-06-14T12:24:38;6.22;;;3.03;;
50319;SDS011;36226;53.464;9.852;2023-06-14T12:27:04;4.22;;;2.25;;
50319;SDS011;36226;53.464;9.852;2023-06-14T12:29:30;4.00;;;2.38;;
50319;SDS011;36226;53.464;9.852;2023-06-14T12:31:56;6.93;;;2.47;;
50319;SDS011;36226;53.464;9.852;2023-06-14T12:34:25;11.02;;;2.40;;
50319;SDS011;36226;53.464;9.852;2023-06-14T12:36:52;5.10;;;2.45;;
50319;SDS011;36226;53.464;9.852;2023-06-14T12:39:18;3.65;;;2.13;;
50319;SDS011;36226;53.464;9.852;2023-06-14T12:41:44;7.10;;;2.42;;
50319;SDS011;36226;53.464;9.852;2023-06-14T12:44:10;4.47;;;2.30;;
50319;SDS011;36226;53.464;9.852;2023-06-14T12:46:36;5.53;;;2.20;;
50319;SDS011;36226;53.464;9.852;2023-06-14T12:49:01;4.63;;;2.45;;
50319;SDS011;36226;53.464;9.852;2023-06-14T12:51:27;3.33;;;1.83;;
50319;SDS011;36226;53.464;9.852;2023-06-14T12:53:52;10.50;;;2.85;;
50319;SDS011;36226;53.464;9.852;2023-06-14T12:56:18;6.72;;;2.88;;
50319;SDS011;36226;53.464;9.852;2023-06-14T12:58:43;7.13;;;2.53;;
50319;SDS011;36226;53.464;9.852;2023-06-14T13:01:08;4.15;;;2.40;;
50319;SDS011;36226;53.464;9.852;2023-06-14T13:03:34;6.68;;;2.38;;
50319;SDS011;36226;53.464;9.852;2023-06-14T13:06:00;5.32;;;2.67;;
50319;SDS011;36226;53.464;9.852;2023-06-14T13:08:26;7.30;;;2.20;;
50319;SDS011;36226;53.464;9.852;2023-06-14T13:10:52;4.65;;;2.35;;
50319;SDS011;36226;53.464;9.852;2023-06-14T13:13:18;6.22;;;2.35;;
50319;SDS011;36226;53.464;9.852;2023-06-14T13:15:43;4.03;;;2.15;;
50319;SDS011;36226;53.464;9.852;2023-06-14T13:18:10;5.75;;;2.40;;
50319;SDS011;36226;53.464;9.852;2023-06-14T13:20:38;4.60;;;2.40;;
50319;SDS011;36226;53.464;9.852;2023-06-14T13:23:03;6.35;;;2.15;;
50319;SDS011;36226;53.464;9.852;2023-06-14T13:25:30;4.53;;;2.53;;
50319;SDS011;36226;53.464;9.852;2023-06-14T13:27:56;5.00;;;2.35;;
50319;SDS011;36226;53.464;9.852;2023-06-14T13:30:21;10.27;;;2.58;;
50319;SDS011;36226;53.464;9.852;2023-06-14T13:32:47;5.07;;;2.58;;
50319;SDS011;36226;53.464;9.852;2023-06-14T13:35:12;9.10;;;2.38;;
50319;SDS011;36226;53.464;9.852;2023-06-14T13:37:37;10.60;;;2.70;;
50319;SDS011;36226;53.464;9.852;2023-06-14T13:40:03;8.55;;;2.63;;
50319;SDS011;36226;53.464;9.852;2023-06-14T13:42:29;7.72;;;2.60;;
50319;SDS011;36226;53.464;9.852;2023-06-14T13:44:56;6.20;;;2.50;;
50319;SDS011;36226;53.464;9.852;2023-06-14T13:47:21;3.70;;;2.35;;
50319;SDS011;36226;53.464;9.852;2023-06-14T13:49:47;4.65;;;2.28;;
50319;SDS011;36226;53.464;9.852;2023-06-14T13:52:12;3.45;;;2.33;;
50319;SDS011;36226;53.464;9.852;2023-06-14T13:54:38;3.03;;;2.25;;
50319;SDS011;36226;53.464;9.852;2023-06-14T13:57:04;5.55;;;2.60;;
50319;SDS011;36226;53.464;9.852;2023-06-14T13:59:29;8.15;;;2.53;;
50319;SDS011;36226;53.464;9.852;2023-06-14T14:01:54;6.45;;;2.47;;
50319;SDS011;36226;53.464;9.852;2023-06-14T14:04:20;4.22;;;2.28;;
50319;SDS011;36226;53.464;9.852;2023-06-14T14:06:45;5.10;;;2.30;;
50319;SDS011;36226;53.464;9.852;2023-06-14T14:09:11;7.10;;;2.20;;
50319;SDS011;36226;53.464;9.852;2023-06-14T14:11:36;4.75;;;2.20;;
50319;SDS011;36226;53.464;9.852;2023-06-14T14:14:02;5.63;;;2.22;;
50319;SDS011;36226;53.464;9.852;2023-06-14T14:16:27;4.95;;;2.60;;
50319;SDS011;36226;53.464;9.852;2023-06-14T14:18:52;7.82;;;2.47;;
50319;SDS011;36226;53.464;9.852;2023-06-14T14:21:18;4.63;;;2.10;;
50319;SDS011;36226;53.464;9.852;2023-06-14T14:23:44;5.03;;;2.35;;
50319;SDS011;36226;53.464;9.852;2023-06-14T14:26:10;2.60;;;2.20;;
50319;SDS011;36226;53.464;9.852;2023-06-14T14:28:36;3.45;;;2.33;;
50319;SDS011;36226;53.464;9.852;2023-06-14T14:31:01;4.57;;;2.33;;
50319;SDS011;36226;53.464;9.852;2023-06-14T14:33:26;3.65;;;2.10;;
50319;SDS011;36226;53.464;9.852;2023-06-14T14:35:52;5.60;;;2.45;;
50319;SDS011;36226;53.464;9.852;2023-06-14T14:38:17;5.60;;;2.20;;
50319;SDS011;36226;53.464;9.852;2023-06-14T14:40:43;6.10;;;2.10;;
50319;SDS011;36226;53.464;9.852;2023-06-14T14:43:09;5.85;;;2.17;;
50319;SDS011;36226;53.464;9.852;2023-06-14T14:45:34;5.18;;;2.10;;
50319;SDS011;36226;53.464;9.852;2023-06-14T14:48:00;5.93;;;2.03;;
50319;SDS011;36226;53.464;9.852;2023-06-14T14:50:27;8.93;;;2.20;;
50319;SDS011;36226;53.464;9.852;2023-06-14T14:52:52;3.72;;;2.10;;
50319;SDS011;36226;53.464;9.852;2023-06-14T14:55:18;7.65;;;2.80;;
50319;SDS011;36226;53.464;9.852;2023-06-14T14:57:43;5.03;;;2.30;;
50319;SDS011;36226;53.464;9.852;2023-06-14T15:00:10;3.05;;;2.13;;
50319;SDS011;36226;53.464;9.852;2023-06-14T15:02:36;4.45;;;2.17;;
50319;SDS011;36226;53.464;9.852;2023-06-14T15:05:01;4.93;;;2.30;;
50319;SDS011;36226;53.464;9.852;2023-06-14T15:07:27;2.83;;;2.13;;
50319;SDS011;36226;53.464;9.852;2023-06-14T15:09:53;4.07;;;2.30;;